sensor_id;sensor_type;location;lat;lon;timestamp;pressure;altitude;pressure_sealevel;temperature;humidity
10462;BME280;5278;42.656;23.374;2022-11-04T00:01:46;94782.50;;;15.53;59.06
10462;BME280;5278;42.656;23.374;2022-11-04T00:04:17;94773.19;;;15.43;59.62
10462;BME280;5278;42.656;23.374;2022-11-04T00:06:44;94770.75;;;15.35;60.00
10462;BME280;5278;42.656;23.374;2022-11-04T00:09:16;94777.59;;;15.30;60.44
10462;BME280;5278;42.656;23.374;2022-11-04T00:11:43;94768.13;;;15.22;60.61
10462;BME280;5278;42.656;23.374;2022-11-04T00:14:28;94772.75;;;15.20;60.79
10462;BME280;5278;42.656;23.374;2022-11-04T00:16:56;94763.91;;;16.00;63.36
10462;BME280;5278;42.656;23.374;2022-11-04T00:19:41;94773.53;;;16.90;56.29
10462;BME280;5278;42.656;23.374;2022-11-04T00:22:26;94770.63;;;16.67;55.00
10462;BME280;5278;42.656;23.374;2022-11-04T00:25:11;94765.06;;;16.37;55.33
10462;BME280;5278;42.656;23.374;2022-11-04T00:28:01;94766.72;;;16.05;56.04
10462;BME280;5278;42.656;23.374;2022-11-04T00:30:45;94764.75;;;15.81;57.18
10462;BME280;5278;42.656;23.374;2022-11-04T00:33:12;94764.34;;;15.58;59.21
10462;BME280;5278;42.656;23.374;2022-11-04T00:35:53;94764.72;;;15.41;60.18
10462;BME280;5278;42.656;23.374;2022-11-04T00:38:20;94761.69;;;15.31;60.27
10462;BME280;5278;42.656;23.374;2022-11-04T00:40:47;94761.88;;;15.23;60.39
10462;BME280;5278;42.656;23.374;2022-11-04T00:43:14;94756.19;;;15.00;60.18
10462;BME280;5278;42.656;23.374;2022-11-04T00:45:40;94732.16;;;14.63;61.89
10462;BME280;5278;42.656;23.374;2022-11-04T00:48:08;94763.19;;;14.80;62.72
10462;BME280;5278;42.656;23.374;2022-11-04T00:50:35;94757.75;;;14.81;63.10
10462;BME280;5278;42.656;23.374;2022-11-04T00:53:03;94748.47;;;14.72;63.35
10462;BME280;5278;42.656;23.374;2022-11-04T00:55:31;94755.47;;;14.65;63.80
10462;BME280;5278;42.656;23.374;2022-11-04T00:57:57;94748.84;;;14.62;63.82
10462;BME280;5278;42.656;23.374;2022-11-04T01:00:24;94733.72;;;14.51;64.35
10462;BME280;5278;42.656;23.374;2022-11-04T01:02:52;94737.75;;;14.54;64.25
10462;BME280;5278;42.656;23.374;2022-11-04T01:05:19;94729.66;;;14.42;64.62
10462;BME280;5278;42.656;23.374;2022-11-04T01:07:46;94745.13;;;14.37;65.14
10462;BME280;5278;42.656;23.374;2022-11-04T01:10:14;94739.09;;;14.37;65.22
10462;BME280;5278;42.656;23.374;2022-11-04T01:12:41;94738.44;;;14.35;65.29
10462;BME280;5278;42.656;23.374;2022-11-04T01:15:08;94738.09;;;14.38;65.30
10462;BME280;5278;42.656;23.374;2022-11-04T01:17:35;94729.81;;;14.34;65.54
10462;BME280;5278;42.656;23.374;2022-11-04T01:20:02;94728.56;;;14.30;65.58
10462;BME280;5278;42.656;23.374;2022-11-04T01:22:29;94723.97;;;14.32;65.84
10462;BME280;5278;42.656;23.374;2022-11-04T01:24:56;94726.56;;;14.32;65.81
10462;BME280;5278;42.656;23.374;2022-11-04T01:27:25;94718.31;;;14.29;66.30
10462;BME280;5278;42.656;23.374;2022-11-04T01:29:53;94713.31;;;14.34;65.68
10462;BME280;5278;42.656;23.374;2022-11-04T01:32:20;94703.25;;;14.31;65.71
10462;BME280;5278;42.656;23.374;2022-11-04T01:34:48;94712.94;;;14.37;65.71
10462;BME280;5278;42.656;23.374;2022-11-04T01:37:15;94712.28;;;14.35;65.96
10462;BME280;5278;42.656;23.374;2022-11-04T01:39:41;94714.75;;;14.36;65.82
10462;BME280;5278;42.656;23.374;2022-11-04T01:42:12;94707.88;;;14.29;66.23
10462;BME280;5278;42.656;23.374;2022-11-04T01:44:53;94707.22;;;14.20;66.26
10462;BME280;5278;42.656;23.374;2022-11-04T01:47:24;94719.72;;;14.25;66.43
10462;BME280;5278;42.656;23.374;2022-11-04T01:49:55;94714.88;;;14.21;66.73
10462;BME280;5278;42.656;23.374;2022-11-04T01:52:27;94706.84;;;14.23;66.56
10462;BME280;5278;42.656;23.374;2022-11-04T01:54:58;94695.41;;;14.31;66.56
10462;BME280;5278;42.656;23.374;2022-11-04T01:57:32;94696.16;;;14.18;65.01
10462;BME280;5278;42.656;23.374;2022-11-04T02:00:05;94699.72;;;14.10;64.28
10462;BME280;5278;42.656;23.374;2022-11-04T02:02:39;94699.69;;;13.97;64.87
10462;BME280;5278;42.656;23.374;2022-11-04T02:05:09;94703.88;;;13.92;66.22
10462;BME280;5278;42.656;23.374;2022-11-04T02:07:37;94626.88;;;13.47;66.79
10462;BME280;5278;42.656;23.374;2022-11-04T02:10:06;94701.25;;;13.92;66.58
10462;BME280;5278;42.656;23.374;2022-11-04T02:12:33;94689.16;;;13.84;67.14
10462;BME280;5278;42.656;23.374;2022-11-04T02:15:17;94686.78;;;13.89;67.22
10462;BME280;5278;42.656;23.374;2022-11-04T02:18:04;94705.06;;;13.89;67.07
10462;BME280;5278;42.656;23.374;2022-11-04T02:20:47;94684.66;;;13.71;67.48
10462;BME280;5278;42.656;23.374;2022-11-04T02:23:49;94686.03;;;13.67;67.12
10462;BME280;5278;42.656;23.374;2022-11-04T02:29:46;94695.16;;;13.50;68.15
10462;BME280;5278;42.656;23.374;2022-11-04T02:32:18;94689.09;;;13.43;68.24
10462;BME280;5278;42.656;23.374;2022-11-04T02:34:55;94683.81;;;13.36;68.85
10462;BME280;5278;42.656;23.374;2022-11-04T02:37:31;94683.41;;;13.33;69.08
10462;BME280;5278;42.656;23.374;2022-11-04T02:40:08;94695.34;;;13.21;69.91
10462;BME280;5278;42.656;23.374;2022-11-04T02:42:42;94675.25;;;13.15;70.29
10462;BME280;5278;42.656;23.374;2022-11-04T02:45:16;94684.91;;;13.21;70.51
10462;BME280;5278;42.656;23.374;2022-11-04T02:47:49;94682.69;;;13.18;70.82
10462;BME280;5278;42.656;23.374;2022-11-04T02:50:22;94680.81;;;13.12;71.49
10462;BME280;5278;42.656;23.374;2022-11-04T02:52:56;94651.88;;;12.85;71.86
10462;BME280;5278;42.656;23.374;2022-11-04T02:55:26;94684.41;;;13.11;71.80
10462;BME280;5278;42.656;23.374;2022-11-04T02:57:58;94689.47;;;13.12;71.20
10462;BME280;5278;42.656;23.374;2022-11-04T03:00:28;94687.94;;;13.03;71.39
10462;BME280;5278;42.656;23.374;2022-11-04T03:02:58;94668.22;;;12.94;71.68
10462;BME280;5278;42.656;23.374;2022-11-04T03:05:32;94679.63;;;12.93;72.16
10462;BME280;5278;42.656;23.374;2022-11-04T03:08:04;94689.66;;;12.89;72.32
10462;BME280;5278;42.656;23.374;2022-11-04T03:10:36;94658.59;;;12.73;73.05
10462;BME280;5278;42.656;23.374;2022-11-04T03:13:07;94683.88;;;12.94;72.84
10462;BME280;5278;42.656;23.374;2022-11-04T03:15:39;94685.03;;;12.91;72.96
10462;BME280;5278;42.656;23.374;2022-11-04T03:18:16;94685.41;;;12.88;72.63
10462;BME280;5278;42.656;23.374;2022-11-04T03:20:45;94675.91;;;12.81;72.58
10462;BME280;5278;42.656;23.374;2022-11-04T03:23:14;94683.00;;;12.87;72.40
10462;BME280;5278;42.656;23.374;2022-11-04T03:25:44;94686.78;;;12.84;72.34
10462;BME280;5278;42.656;23.374;2022-11-04T03:28:22;94686.53;;;12.79;72.59
10462;BME280;5278;42.656;23.374;2022-11-04T03:30:54;94691.75;;;12.79;72.67
10462;BME280;5278;42.656;23.374;2022-11-04T03:33:26;94684.84;;;12.72;73.11
10462;BME280;5278;42.656;23.374;2022-11-04T03:35:55;94679.03;;;12.70;73.10
10462;BME280;5278;42.656;23.374;2022-11-04T03:38:22;94686.03;;;12.69;73.32
10462;BME280;5278;42.656;23.374;2022-11-04T03:40:50;94684.34;;;12.62;73.62
10462;BME280;5278;42.656;23.374;2022-11-04T03:43:20;94659.56;;;12.51;73.48
10462;BME280;5278;42.656;23.374;2022-11-04T03:45:51;94682.69;;;12.54;73.11
10462;BME280;5278;42.656;23.374;2022-11-04T03:48:18;94686.28;;;12.53;72.95
10462;BME280;5278;42.656;23.374;2022-11-04T03:50:46;94684.56;;;12.45;72.63
10462;BME280;5278;42.656;23.374;2022-11-04T03:53:16;94697.16;;;12.42;72.72
10462;BME280;5278;42.656;23.374;2022-11-04T03:55:56;94679.88;;;12.34;73.06
10462;BME280;5278;42.656;23.374;2022-11-04T03:58:34;94688.41;;;12.28;72.69
10462;BME280;5278;42.656;23.374;2022-11-04T04:01:16;94680.31;;;12.23;72.48
10462;BME280;5278;42.656;23.374;2022-11-04T04:03:52;94677.91;;;12.22;72.51
10462;BME280;5278;42.656;23.374;2022-11-04T04:06:26;94676.09;;;12.22;73.30
10462;BME280;5278;42.656;23.374;2022-11-04T04:08:57;94673.50;;;12.22;73.34
10462;BME280;5278;42.656;23.374;2022-11-04T04:11:35;94672.09;;;12.20;74.05
10462;BME280;5278;42.656;23.374;2022-11-04T04:14:11;94679.91;;;12.20;73.81
10462;BME280;5278;42.656;23.374;2022-11-04T04:17:04;94670.13;;;12.07;73.67
10462;BME280;5278;42.656;23.374;2022-11-04T04:19:33;94671.00;;;12.14;74.39
10462;BME280;5278;42.656;23.374;2022-11-04T04:22:03;94676.66;;;12.18;74.45
10462;BME280;5278;42.656;23.374;2022-11-04T04:24:35;94665.59;;;12.16;74.32
10462;BME280;5278;42.656;23.374;2022-11-04T04:27:21;94677.94;;;12.07;74.08
10462;BME280;5278;42.656;23.374;2022-11-04T04:30:00;94671.56;;;12.10;74.72
10462;BME280;5278;42.656;23.374;2022-11-04T04:32:34;94666.97;;;12.12;74.53
10462;BME280;5278;42.656;23.374;2022-11-04T04:35:05;94669.69;;;12.03;74.72
10462;BME280;5278;42.656;23.374;2022-11-04T04:37:51;94653.91;;;11.90;75.17
10462;BME280;5278;42.656;23.374;2022-11-04T04:40:23;94665.06;;;12.05;76.51
10462;BME280;5278;42.656;23.374;2022-11-04T04:43:13;94669.59;;;11.97;75.47
10462;BME280;5278;42.656;23.374;2022-11-04T04:45:58;94662.03;;;12.02;75.18
10462;BME280;5278;42.656;23.374;2022-11-04T04:48:27;94678.84;;;11.99;74.98
10462;BME280;5278;42.656;23.374;2022-11-04T04:50:55;94681.00;;;11.96;75.08
10462;BME280;5278;42.656;23.374;2022-11-04T04:53:26;94672.75;;;11.92;75.23
10462;BME280;5278;42.656;23.374;2022-11-04T04:55:53;94671.66;;;12.01;75.00
10462;BME280;5278;42.656;23.374;2022-11-04T04:58:20;94659.72;;;11.92;75.33
10462;BME280;5278;42.656;23.374;2022-11-04T05:00:46;94668.16;;;11.94;75.10
10462;BME280;5278;42.656;23.374;2022-11-04T05:03:13;94672.56;;;11.94;75.52
10462;BME280;5278;42.656;23.374;2022-11-04T05:05:41;94679.13;;;11.90;75.19
10462;BME280;5278;42.656;23.374;2022-11-04T05:08:08;94665.56;;;11.94;75.01
10462;BME280;5278;42.656;23.374;2022-11-04T05:10:35;94664.06;;;11.85;75.15
10462;BME280;5278;42.656;23.374;2022-11-04T05:13:02;94669.06;;;11.87;75.54
10462;BME280;5278;42.656;23.374;2022-11-04T05:15:47;94676.31;;;11.91;75.14
10462;BME280;5278;42.656;23.374;2022-11-04T05:18:14;94679.31;;;11.88;74.52
10462;BME280;5278;42.656;23.374;2022-11-04T05:20:42;94680.38;;;11.94;74.74
10462;BME280;5278;42.656;23.374;2022-11-04T05:23:09;94695.88;;;12.02;74.94
10462;BME280;5278;42.656;23.374;2022-11-04T05:25:38;94688.31;;;12.22;74.13
10462;BME280;5278;42.656;23.374;2022-11-04T05:28:05;94680.00;;;12.47;73.35
10462;BME280;5278;42.656;23.374;2022-11-04T05:30:32;94687.59;;;12.64;72.45
10462;BME280;5278;42.656;23.374;2022-11-04T05:32:59;94689.25;;;12.92;71.70
10462;BME280;5278;42.656;23.374;2022-11-04T05:35:26;94682.53;;;13.26;70.14
10462;BME280;5278;42.656;23.374;2022-11-04T05:37:55;94690.63;;;13.65;68.72
10462;BME280;5278;42.656;23.374;2022-11-04T05:40:23;94681.84;;;14.07;67.12
10462;BME280;5278;42.656;23.374;2022-11-04T05:42:50;94691.38;;;14.35;65.22
10462;BME280;5278;42.656;23.374;2022-11-04T05:45:17;94687.31;;;14.80;63.50
10462;BME280;5278;42.656;23.374;2022-11-04T05:47:44;94696.44;;;15.36;61.66
10462;BME280;5278;42.656;23.374;2022-11-04T05:50:12;94692.38;;;15.80;59.78
10462;BME280;5278;42.656;23.374;2022-11-04T05:52:38;94694.88;;;16.26;57.65
10462;BME280;5278;42.656;23.374;2022-11-04T05:55:07;94693.44;;;16.81;55.92
10462;BME280;5278;42.656;23.374;2022-11-04T05:57:34;94695.97;;;17.26;53.75
10462;BME280;5278;42.656;23.374;2022-11-04T06:00:03;94694.06;;;17.64;53.17
10462;BME280;5278;42.656;23.374;2022-11-04T06:02:30;94697.88;;;18.11;51.03
10462;BME280;5278;42.656;23.374;2022-11-04T06:04:57;94702.59;;;18.39;49.94
10462;BME280;5278;42.656;23.374;2022-11-04T06:07:24;94699.69;;;18.65;48.85
10462;BME280;5278;42.656;23.374;2022-11-04T06:09:51;94691.31;;;18.98;47.84
10462;BME280;5278;42.656;23.374;2022-11-04T06:12:19;94695.81;;;18.98;47.89
10462;BME280;5278;42.656;23.374;2022-11-04T06:14:46;94698.59;;;19.03;47.81
10462;BME280;5278;42.656;23.374;2022-11-04T06:17:14;94691.84;;;19.18;47.33
10462;BME280;5278;42.656;23.374;2022-11-04T06:19:41;94687.47;;;19.54;46.49
10462;BME280;5278;42.656;23.374;2022-11-04T06:22:10;94690.25;;;19.82;45.35
10462;BME280;5278;42.656;23.374;2022-11-04T06:24:37;94692.16;;;20.10;45.07
10462;BME280;5278;42.656;23.374;2022-11-04T06:27:04;94700.97;;;20.39;44.20
10462;BME280;5278;42.656;23.374;2022-11-04T06:29:32;94690.72;;;20.54;43.56
10462;BME280;5278;42.656;23.374;2022-11-04T06:32:01;94678.31;;;20.66;43.38
10462;BME280;5278;42.656;23.374;2022-11-04T06:34:27;94685.59;;;21.04;42.80
10462;BME280;5278;42.656;23.374;2022-11-04T06:36:55;94675.41;;;21.24;42.10
10462;BME280;5278;42.656;23.374;2022-11-04T06:39:21;94689.69;;;21.57;41.61
10462;BME280;5278;42.656;23.374;2022-11-04T06:41:48;94683.50;;;21.68;41.27
10462;BME280;5278;42.656;23.374;2022-11-04T06:44:15;94691.75;;;21.88;40.85
10462;BME280;5278;42.656;23.374;2022-11-04T06:46:44;94690.19;;;22.25;39.63
10462;BME280;5278;42.656;23.374;2022-11-04T06:49:12;94692.22;;;22.62;38.89
10462;BME280;5278;42.656;23.374;2022-11-04T06:51:40;94685.72;;;22.91;38.76
10462;BME280;5278;42.656;23.374;2022-11-04T06:54:07;94684.97;;;23.49;37.13
10462;BME280;5278;42.656;23.374;2022-11-04T06:56:34;94682.00;;;23.78;36.67
10462;BME280;5278;42.656;23.374;2022-11-04T06:59:00;94673.09;;;23.99;36.04
10462;BME280;5278;42.656;23.374;2022-11-04T07:01:29;94679.28;;;24.10;35.83
10462;BME280;5278;42.656;23.374;2022-11-04T07:04:00;94683.44;;;24.37;35.61
10462;BME280;5278;42.656;23.374;2022-11-04T07:06:27;94676.91;;;24.60;35.08
10462;BME280;5278;42.656;23.374;2022-11-04T07:08:57;94683.13;;;24.91;34.41
10462;BME280;5278;42.656;23.374;2022-11-04T07:11:25;94681.88;;;25.19;34.03
10462;BME280;5278;42.656;23.374;2022-11-04T07:13:52;94673.34;;;25.12;34.45
10462;BME280;5278;42.656;23.374;2022-11-04T07:16:19;94676.56;;;25.19;34.25
10462;BME280;5278;42.656;23.374;2022-11-04T07:18:46;94680.09;;;25.65;33.42
10462;BME280;5278;42.656;23.374;2022-11-04T07:21:15;94670.72;;;25.98;33.18
10462;BME280;5278;42.656;23.374;2022-11-04T07:23:42;94665.09;;;26.20;32.79
10462;BME280;5278;42.656;23.374;2022-11-04T07:26:10;94664.84;;;26.85;32.33
10462;BME280;5278;42.656;23.374;2022-11-04T07:28:37;94649.13;;;27.33;31.34
10462;BME280;5278;42.656;23.374;2022-11-04T07:31:05;94651.75;;;27.77;30.69
10462;BME280;5278;42.656;23.374;2022-11-04T07:33:33;94639.50;;;27.71;30.71
10462;BME280;5278;42.656;23.374;2022-11-04T07:36:04;94647.69;;;28.08;30.47
10462;BME280;5278;42.656;23.374;2022-11-04T07:38:34;94632.75;;;28.55;29.64
10462;BME280;5278;42.656;23.374;2022-11-04T07:41:01;94637.53;;;28.58;29.35
10462;BME280;5278;42.656;23.374;2022-11-04T07:43:28;94627.63;;;28.82;28.93
10462;BME280;5278;42.656;23.374;2022-11-04T07:46:00;94637.97;;;29.26;28.28
10462;BME280;5278;42.656;23.374;2022-11-04T07:48:27;94617.00;;;29.66;27.52
10462;BME280;5278;42.656;23.374;2022-11-04T07:50:56;94609.22;;;29.83;27.14
10462;BME280;5278;42.656;23.374;2022-11-04T07:53:23;94629.06;;;29.82;27.64
10462;BME280;5278;42.656;23.374;2022-11-04T07:55:51;94636.88;;;30.11;26.73
10462;BME280;5278;42.656;23.374;2022-11-04T07:58:19;94628.88;;;30.38;26.88
10462;BME280;5278;42.656;23.374;2022-11-04T08:00:46;94626.78;;;30.62;26.30
10462;BME280;5278;42.656;23.374;2022-11-04T08:03:13;94619.84;;;30.48;26.52
10462;BME280;5278;42.656;23.374;2022-11-04T08:05:40;94632.72;;;30.87;26.00
10462;BME280;5278;42.656;23.374;2022-11-04T08:08:07;94625.88;;;30.81;26.19
10462;BME280;5278;42.656;23.374;2022-11-04T08:10:34;94614.13;;;31.48;25.27
10462;BME280;5278;42.656;23.374;2022-11-04T08:13:02;94617.25;;;31.19;25.50
10462;BME280;5278;42.656;23.374;2022-11-04T08:15:29;94611.03;;;31.33;25.81
10462;BME280;5278;42.656;23.374;2022-11-04T08:17:56;94611.97;;;31.28;25.57
10462;BME280;5278;42.656;23.374;2022-11-04T08:20:23;94613.78;;;31.86;25.10
10462;BME280;5278;42.656;23.374;2022-11-04T08:22:49;94597.13;;;32.06;24.72
10462;BME280;5278;42.656;23.374;2022-11-04T08:25:16;94602.13;;;32.21;24.50
10462;BME280;5278;42.656;23.374;2022-11-04T08:27:43;94598.44;;;32.57;23.93
10462;BME280;5278;42.656;23.374;2022-11-04T08:30:12;94592.50;;;32.77;23.82
10462;BME280;5278;42.656;23.374;2022-11-04T08:32:39;94590.03;;;32.58;23.82
10462;BME280;5278;42.656;23.374;2022-11-04T08:35:06;94591.28;;;33.26;23.07
10462;BME280;5278;42.656;23.374;2022-11-04T08:37:34;94590.13;;;33.01;23.23
10462;BME280;5278;42.656;23.374;2022-11-04T08:40:01;94565.56;;;32.85;23.49
10462;BME280;5278;42.656;23.374;2022-11-04T08:42:29;94587.25;;;32.80;23.25
10462;BME280;5278;42.656;23.374;2022-11-04T08:44:56;94583.16;;;33.00;23.10
10462;BME280;5278;42.656;23.374;2022-11-04T08:47:24;94577.94;;;33.12;22.89
10462;BME280;5278;42.656;23.374;2022-11-04T08:49:51;94588.28;;;33.27;22.88
10462;BME280;5278;42.656;23.374;2022-11-04T08:52:18;94567.59;;;33.66;22.27
10462;BME280;5278;42.656;23.374;2022-11-04T08:54:46;94573.69;;;33.37;22.60
10462;BME280;5278;42.656;23.374;2022-11-04T08:57:12;94571.75;;;33.38;22.76
10462;BME280;5278;42.656;23.374;2022-11-04T08:59:39;94568.09;;;32.99;22.69
10462;BME280;5278;42.656;23.374;2022-11-04T09:02:12;94567.63;;;33.23;22.57
10462;BME280;5278;42.656;23.374;2022-11-04T09:04:41;94545.78;;;33.16;22.87
10462;BME280;5278;42.656;23.374;2022-11-04T09:07:07;94564.47;;;33.29;22.76
10462;BME280;5278;42.656;23.374;2022-11-04T09:09:34;94568.28;;;33.37;22.20
10462;BME280;5278;42.656;23.374;2022-11-04T09:12:01;94551.97;;;33.16;22.75
10462;BME280;5278;42.656;23.374;2022-11-04T09:14:28;94544.91;;;33.76;22.67
10462;BME280;5278;42.656;23.374;2022-11-04T09:16:55;94534.38;;;33.91;22.24
10462;BME280;5278;42.656;23.374;2022-11-04T09:19:22;94539.75;;;34.00;21.86
10462;BME280;5278;42.656;23.374;2022-11-04T09:21:50;94531.00;;;34.41;21.83
10462;BME280;5278;42.656;23.374;2022-11-04T09:24:18;94531.94;;;34.66;21.25
10462;BME280;5278;42.656;23.374;2022-11-04T09:26:44;94529.41;;;34.90;20.88
10462;BME280;5278;42.656;23.374;2022-11-04T09:29:11;94525.28;;;34.63;21.04
10462;BME280;5278;42.656;23.374;2022-11-04T09:31:38;94533.63;;;33.82;21.67
10462;BME280;5278;42.656;23.374;2022-11-04T09:34:07;94527.22;;;33.32;22.04
10462;BME280;5278;42.656;23.374;2022-11-04T09:36:34;94524.06;;;32.95;22.60
10462;BME280;5278;42.656;23.374;2022-11-04T09:39:03;94517.97;;;32.38;23.20
10462;BME280;5278;42.656;23.374;2022-11-04T09:41:56;94517.13;;;32.20;23.62
10462;BME280;5278;42.656;23.374;2022-11-04T09:44:27;94509.84;;;32.21;23.34
10462;BME280;5278;42.656;23.374;2022-11-04T09:46:59;94498.72;;;32.14;23.22
10462;BME280;5278;42.656;23.374;2022-11-04T09:49:36;94514.31;;;31.94;23.71
10462;BME280;5278;42.656;23.374;2022-11-04T09:52:07;94498.56;;;31.71;24.41
10462;BME280;5278;42.656;23.374;2022-11-04T09:54:43;94484.50;;;32.13;24.16
10462;BME280;5278;42.656;23.374;2022-11-04T09:57:17;94481.69;;;32.35;23.70
10462;BME280;5278;42.656;23.374;2022-11-04T09:59:46;94470.03;;;32.74;23.07
10462;BME280;5278;42.656;23.374;2022-11-04T10:05:32;94465.72;;;32.99;22.67
10462;BME280;5278;42.656;23.374;2022-11-04T10:08:18;94456.63;;;33.38;22.20
10462;BME280;5278;42.656;23.374;2022-11-04T10:10:57;94448.59;;;33.29;22.40
10462;BME280;5278;42.656;23.374;2022-11-04T10:13:32;94443.53;;;33.75;21.83
10462;BME280;5278;42.656;23.374;2022-11-04T10:16:23;94431.66;;;33.67;21.59
10462;BME280;5278;42.656;23.374;2022-11-04T10:19:06;94445.13;;;33.76;21.63
10462;BME280;5278;42.656;23.374;2022-11-04T10:21:44;94433.97;;;33.86;21.66
10462;BME280;5278;42.656;23.374;2022-11-04T10:24:18;94430.09;;;33.95;21.67
10462;BME280;5278;42.656;23.374;2022-11-04T10:26:51;94425.19;;;33.97;21.50
10462;BME280;5278;42.656;23.374;2022-11-04T10:29:26;94427.16;;;33.42;22.25
10462;BME280;5278;42.656;23.374;2022-11-04T10:31:56;94420.09;;;33.20;22.70
10462;BME280;5278;42.656;23.374;2022-11-04T10:34:30;94417.19;;;33.34;22.29
10462;BME280;5278;42.656;23.374;2022-11-04T10:37:00;94405.69;;;32.90;22.50
10462;BME280;5278;42.656;23.374;2022-11-04T10:39:30;94402.22;;;32.21;23.36
10462;BME280;5278;42.656;23.374;2022-11-04T10:41:59;94405.22;;;32.19;23.68
10462;BME280;5278;42.656;23.374;2022-11-04T10:44:30;94386.88;;;32.64;23.19
10462;BME280;5278;42.656;23.374;2022-11-04T10:47:05;94389.41;;;32.78;22.99
10462;BME280;5278;42.656;23.374;2022-11-04T10:49:50;94379.94;;;31.63;24.06
10462;BME280;5278;42.656;23.374;2022-11-04T10:52:20;94385.63;;;32.27;23.66
10462;BME280;5278;42.656;23.374;2022-11-04T10:54:48;94374.53;;;32.37;23.26
10462;BME280;5278;42.656;23.374;2022-11-04T10:57:19;94375.97;;;32.35;23.28
10462;BME280;5278;42.656;23.374;2022-11-04T10:59:52;94355.22;;;32.53;23.23
10462;BME280;5278;42.656;23.374;2022-11-04T11:02:42;94352.50;;;32.87;23.02
10462;BME280;5278;42.656;23.374;2022-11-04T11:05:27;94354.16;;;33.17;22.46
10462;BME280;5278;42.656;23.374;2022-11-04T11:07:55;94318.63;;;32.60;22.77
10462;BME280;5278;42.656;23.374;2022-11-04T11:10:24;94336.06;;;32.02;23.39
10462;BME280;5278;42.656;23.374;2022-11-04T11:12:56;94336.06;;;31.37;24.06
10462;BME280;5278;42.656;23.374;2022-11-04T11:15:29;94340.78;;;31.23;24.29
10462;BME280;5278;42.656;23.374;2022-11-04T11:18:14;94331.69;;;30.79;24.92
10462;BME280;5278;42.656;23.374;2022-11-04T11:20:42;94325.44;;;30.17;25.64
10462;BME280;5278;42.656;23.374;2022-11-04T11:23:33;94318.78;;;30.15;25.60
10462;BME280;5278;42.656;23.374;2022-11-04T11:26:00;94310.75;;;30.59;25.50
10462;BME280;5278;42.656;23.374;2022-11-04T11:28:29;94310.56;;;30.87;24.97
10462;BME280;5278;42.656;23.374;2022-11-04T11:31:04;94310.72;;;31.21;24.54
10462;BME280;5278;42.656;23.374;2022-11-04T11:33:37;94296.84;;;30.88;25.11
10462;BME280;5278;42.656;23.374;2022-11-04T11:36:08;94291.13;;;30.28;25.35
10462;BME280;5278;42.656;23.374;2022-11-04T11:39:00;94280.84;;;29.85;26.41
10462;BME280;5278;42.656;23.374;2022-11-04T11:41:31;94270.44;;;29.34;26.50
10462;BME280;5278;42.656;23.374;2022-11-04T11:44:03;94280.97;;;28.76;27.45
10462;BME280;5278;42.656;23.374;2022-11-04T11:46:36;94277.13;;;28.50;28.01
10462;BME280;5278;42.656;23.374;2022-11-04T11:49:22;94259.88;;;28.29;28.13
10462;BME280;5278;42.656;23.374;2022-11-04T11:51:50;94259.06;;;28.28;28.07
10462;BME280;5278;42.656;23.374;2022-11-04T11:54:25;94252.81;;;27.68;28.50
10462;BME280;5278;42.656;23.374;2022-11-04T11:56:56;94264.06;;;27.04;29.29
10462;BME280;5278;42.656;23.374;2022-11-04T11:59:35;94260.56;;;26.55;29.82
10462;BME280;5278;42.656;23.374;2022-11-04T12:02:19;94248.22;;;26.07;31.00
10462;BME280;5278;42.656;23.374;2022-11-04T12:04:49;94240.81;;;25.70;31.40
10462;BME280;5278;42.656;23.374;2022-11-04T12:07:25;94235.38;;;25.41;32.27
10462;BME280;5278;42.656;23.374;2022-11-04T12:10:00;94239.03;;;25.06;33.02
10462;BME280;5278;42.656;23.374;2022-11-04T12:12:40;94244.75;;;24.69;33.57
10462;BME280;5278;42.656;23.374;2022-11-04T12:15:23;94244.75;;;24.69;33.64
10462;BME280;5278;42.656;23.374;2022-11-04T12:18:12;94238.66;;;24.64;34.00
10462;BME280;5278;42.656;23.374;2022-11-04T12:20:50;94232.28;;;24.60;33.93
10462;BME280;5278;42.656;23.374;2022-11-04T12:23:22;94231.53;;;24.44;34.28
10462;BME280;5278;42.656;23.374;2022-11-04T12:25:59;94232.63;;;24.08;35.01
10462;BME280;5278;42.656;23.374;2022-11-04T12:28:38;94239.00;;;24.07;34.91
10462;BME280;5278;42.656;23.374;2022-11-04T12:31:20;94241.97;;;23.90;35.03
10462;BME280;5278;42.656;23.374;2022-11-04T12:34:00;94243.25;;;23.67;35.66
10462;BME280;5278;42.656;23.374;2022-11-04T12:36:39;94239.31;;;23.70;35.42
10462;BME280;5278;42.656;23.374;2022-11-04T12:39:19;94240.91;;;23.71;35.95
10462;BME280;5278;42.656;23.374;2022-11-04T12:41:58;94245.66;;;23.74;35.47
10462;BME280;5278;42.656;23.374;2022-11-04T12:44:31;94244.88;;;23.78;35.72
10462;BME280;5278;42.656;23.374;2022-11-04T12:47:14;94227.09;;;23.74;35.41
10462;BME280;5278;42.656;23.374;2022-11-04T12:49:55;94220.47;;;23.46;36.24
10462;BME280;5278;42.656;23.374;2022-11-04T12:52:44;94216.41;;;23.28;36.75
10462;BME280;5278;42.656;23.374;2022-11-04T12:55:30;94212.91;;;23.07;37.19
10462;BME280;5278;42.656;23.374;2022-11-04T12:58:03;94215.81;;;22.96;37.04
10462;BME280;5278;42.656;23.374;2022-11-04T13:00:37;94213.09;;;22.76;37.62
10462;BME280;5278;42.656;23.374;2022-11-04T13:03:15;94216.44;;;22.56;38.32
10462;BME280;5278;42.656;23.374;2022-11-04T13:05:49;94215.34;;;22.52;38.46
10462;BME280;5278;42.656;23.374;2022-11-04T13:08:21;94221.69;;;22.46;38.44
10462;BME280;5278;42.656;23.374;2022-11-04T13:10:53;94213.06;;;22.18;39.08
10462;BME280;5278;42.656;23.374;2022-11-04T13:13:25;94208.28;;;22.15;39.25
10462;BME280;5278;42.656;23.374;2022-11-04T13:15:57;94208.75;;;22.07;39.51
10462;BME280;5278;42.656;23.374;2022-11-04T13:18:30;94225.22;;;22.14;39.88
10462;BME280;5278;42.656;23.374;2022-11-04T13:21:03;94217.31;;;22.19;40.00
10462;BME280;5278;42.656;23.374;2022-11-04T13:23:36;94207.50;;;22.15;39.91
10462;BME280;5278;42.656;23.374;2022-11-04T13:26:09;94215.63;;;22.03;40.00
10462;BME280;5278;42.656;23.374;2022-11-04T13:28:39;94219.31;;;22.02;40.08
10462;BME280;5278;42.656;23.374;2022-11-04T13:31:10;94214.84;;;22.08;40.16